Time;durP1;ratioP1;P1;durP2;ratioP2;P2;SDS_P1;SDS_P2;PMS_P1;PMS_P2;Temp;Humidity;BMP_temperature;BMP_pressure;BME280_temperature;BME280_humidity;BME280_pressure;Samples;Min_cycle;Max_cycle;Signal;HPM_P1;HPM_P2
2022/02/15 00:01:19;;;;;;;38.60;20.10;;;;;;;3.74;53.00;94234.22;5004885;28;20330;-76
2022/02/15 00:03:44;;;;;;;41.35;21.90;;;;;;;3.86;53.01;94255.06;4995830;28;20048;-76
2022/02/15 00:06:09;;;;;;;37.53;20.27;;;;;;;4.02;52.58;94256.66;4998145;28;20074;-76
2022/02/15 00:08:35;;;;;;;43.47;20.33;;;;;;;3.58;53.23;94224.72;4990371;28;21669;-75
2022/02/15 00:11:00;;;;;;;38.03;20.45;;;;;;;3.56;54.25;94252.34;4996562;28;20829;-76
2022/02/15 00:13:26;;;;;;;47.72;19.98;;;;;;;3.58;53.90;94244.97;5009288;28;20139;-76
2022/02/15 00:15:51;;;;;;;39.65;18.55;;;;;;;3.58;53.82;94237.06;5002931;28;20038;-76
2022/02/15 00:18:17;;;;;;;45.60;19.55;;;;;;;3.64;53.75;94249.19;4994489;28;20092;-75
2022/02/15 00:20:44;;;;;;;44.15;22.38;;;;;;;3.82;53.08;94251.34;5020477;28;20254;-76
2022/02/15 00:23:10;;;;;;;40.08;21.27;;;;;;;3.72;53.01;94241.59;5000407;28;20048;-75
2022/02/15 00:25:35;;;;;;;41.58;21.88;;;;;;;3.71;52.95;94247.13;4993047;28;20511;-76
2022/02/15 00:28:00;;;;;;;38.38;20.05;;;;;;;3.79;52.87;94241.34;4995992;28;20132;-76
2022/02/15 00:30:26;;;;;;;40.95;21.02;;;;;;;3.87;52.82;94248.72;5004789;28;20128;-76
2022/02/15 00:32:51;;;;;;;42.85;19.30;;;;;;;3.84;52.41;94239.53;4997271;28;20836;-77
2022/02/15 00:35:17;;;;;;;41.80;19.92;;;;;;;3.92;52.56;94255.84;4989632;28;20056;-76
2022/02/15 00:37:44;;;;;;;42.05;20.27;;;;;;;3.77;52.68;94238.97;5002912;28;20037;-76
2022/02/15 00:40:11;;;;;;;39.65;18.45;;;;;;;3.92;52.50;94253.19;5013624;28;20063;-77
2022/02/15 00:42:37;;;;;;;38.78;17.23;;;;;;;3.82;52.26;94222.41;5003716;28;20072;-76
2022/02/15 00:45:03;;;;;;;46.95;18.40;;;;;;;4.05;51.89;94247.44;5000107;28;20024;-75
2022/02/15 00:47:28;;;;;;;33.97;16.02;;;;;;;3.99;51.64;94241.38;4995638;28;20111;-76
2022/02/15 00:49:54;;;;;;;32.33;16.73;;;;;;;3.89;51.67;94236.09;4997068;28;20038;-76
2022/02/15 00:52:19;;;;;;;31.75;17.42;;;;;;;4.03;51.90;94242.44;4996066;28;20520;-76
2022/02/15 00:54:45;;;;;;;32.45;16.98;;;;;;;4.00;51.70;94248.25;4997705;28;20503;-77
2022/02/15 00:57:10;;;;;;;31.95;16.40;;;;;;;3.93;51.90;94239.78;5002551;28;21058;-75
2022/02/15 00:59:37;;;;;;;36.13;16.55;;;;;;;4.04;51.56;94240.59;4999062;28;20077;-76
2022/02/15 01:02:02;;;;;;;29.67;16.23;;;;;;;3.96;51.88;94236.66;5001626;28;20045;-76
2022/02/15 01:04:28;;;;;;;31.55;15.70;;;;;;;3.82;51.72;94219.75;4998568;28;20477;-76
2022/02/15 01:06:53;;;;;;;30.20;15.23;;;;;;;3.95;51.73;94229.81;4995045;28;20045;-75
2022/02/15 01:09:18;;;;;;;26.45;15.60;;;;;;;3.89;51.67;94232.69;4997694;28;20087;-75
2022/02/15 01:11:44;;;;;;;25.65;15.57;;;;;;;3.66;51.98;94190.03;4994088;28;20045;-76
2022/02/15 01:14:09;;;;;;;30.85;16.40;;;;;;;3.91;51.80;94220.88;5003592;28;20033;-77
2022/02/15 01:16:35;;;;;;;29.92;15.65;;;;;;;3.81;51.58;94197.16;5001012;28;20080;-76
2022/02/15 01:19:00;;;;;;;30.02;16.00;;;;;;;3.74;51.69;94196.59;4997217;28;20038;-76
2022/02/15 01:21:26;;;;;;;27.20;13.25;;;;;;;3.91;51.61;94202.44;4999476;28;20030;-76
2022/02/15 01:23:51;;;;;;;23.77;14.85;;;;;;;3.83;51.40;94195.03;5015645;28;20049;-76
2022/02/15 01:26:16;;;;;;;30.17;14.90;;;;;;;3.70;51.57;94188.47;4999272;28;20404;-76
2022/02/15 01:28:42;;;;;;;28.80;13.98;;;;;;;3.89;50.89;94180.84;5006050;28;20033;-76
2022/02/15 01:31:09;;;;;;;30.40;16.55;;;;;;;3.76;51.23;94195.31;5005596;28;20052;-76
2022/02/15 01:33:35;;;;;;;31.38;16.42;;;;;;;3.45;51.93;94169.19;4983077;28;20033;-76
2022/02/15 01:36:00;;;;;;;30.10;14.93;;;;;;;3.56;52.30;94189.22;5004077;28;20364;-76
2022/02/15 01:38:26;;;;;;;26.55;14.43;;;;;;;3.62;51.67;94183.72;4993554;28;20483;-76
2022/02/15 01:40:52;;;;;;;25.27;13.30;;;;;;;3.59;51.72;94170.28;4995203;28;20037;-76
2022/02/15 01:43:17;;;;;;;19.75;12.65;;;;;;;3.58;51.78;94171.31;4997022;28;20038;-76
2022/02/15 01:45:43;;;;;;;28.15;14.00;;;;;;;3.87;51.18;94185.56;4994104;28;20045;-76
2022/02/15 01:48:09;;;;;;;31.05;16.23;;;;;;;3.68;51.59;94187.13;5005011;28;20026;-76
2022/02/15 01:50:35;;;;;;;27.77;14.48;;;;;;;3.77;51.65;94185.59;4992695;28;20482;-76
2022/02/15 01:53:00;;;;;;;25.48;13.52;;;;;;;3.87;50.83;94190.06;4998815;28;20603;-76
2022/02/15 01:55:26;;;;;;;31.02;14.05;;;;;;;3.69;51.34;94186.88;4992795;28;20613;-76
2022/02/15 01:57:52;;;;;;;33.50;14.80;;;;;;;3.73;51.51;94192.41;4992420;28;20049;-76
2022/02/15 02:00:19;;;;;;;35.95;18.30;;;;;;;3.69;51.53;94183.44;4997473;28;20061;-76
2022/02/15 02:02:47;;;;;;;34.42;17.98;;;;;;;3.76;51.43;94194.53;4987584;28;20033;-76
2022/02/15 02:07:57;;;;;;;38.63;19.50;;;;;;;3.62;51.48;94185.56;4998067;28;20037;-75
2022/02/15 02:10:22;;;;;;;30.83;15.60;;;;;;;3.59;51.87;94181.59;4996713;28;20046;-75
2022/02/15 02:12:48;;;;;;;30.45;15.65;;;;;;;3.68;51.31;94198.44;4987449;28;20103;-75
2022/02/15 02:15:19;;;;;;;34.90;18.42;;;;;;;3.76;51.27;94178.75;4992524;28;20029;-75
2022/02/15 02:17:44;;;;;;;30.60;17.30;;;;;;;3.71;50.96;94170.84;5002699;28;20499;-76
2022/02/15 02:20:11;;;;;;;34.47;18.38;;;;;;;3.57;51.80;94201.31;5005105;28;20033;-76
2022/02/15 02:22:37;;;;;;;38.20;20.75;;;;;;;3.52;52.02;94172.38;4992642;28;20045;-75
2022/02/15 02:25:03;;;;;;;40.75;19.50;;;;;;;3.49;52.28;94183.41;5007639;28;20642;-77
2022/02/15 02:27:30;;;;;;;38.00;21.30;;;;;;;3.53;52.52;94187.88;4989534;28;20065;-75
2022/02/15 02:29:56;;;;;;;41.33;20.10;;;;;;;3.40;52.78;94164.72;4995458;28;20446;-76
2022/02/15 02:32:27;;;;;;;38.72;19.98;;;;;;;3.40;52.98;94176.03;4992324;28;20037;-76
2022/02/15 02:34:54;;;;;;;41.13;19.05;;;;;;;3.77;52.52;94196.09;5000263;28;20034;-76
2022/02/15 02:37:20;;;;;;;43.45;22.08;;;;;;;3.79;53.18;94197.41;5004181;28;20041;-76
2022/02/15 02:39:48;;;;;;;50.75;22.25;;;;;;;3.71;53.34;94202.41;4992776;28;20041;-76
2022/02/15 02:42:17;;;;;;;40.08;20.75;;;;;;;3.87;53.76;94213.75;5000559;28;20053;-75
2022/02/15 02:44:43;;;;;;;50.15;23.48;;;;;;;3.63;54.04;94182.66;4997055;28;20136;-76
2022/02/15 02:47:08;;;;;;;50.42;23.50;;;;;;;3.70;54.10;94195.56;5005113;28;20436;-76
2022/02/15 02:49:34;;;;;;;47.42;23.30;;;;;;;3.65;54.42;94198.97;5002177;28;20503;-75
2022/02/15 02:52:01;;;;;;;51.38;24.38;;;;;;;3.21;54.94;94177.56;4999475;28;20049;-76
2022/02/15 02:54:27;;;;;;;50.20;23.15;;;;;;;3.74;54.78;94222.91;5000590;28;20026;-75
2022/02/15 02:56:54;;;;;;;46.13;21.65;;;;;;;3.60;55.11;94206.06;4992371;28;20049;-76
2022/02/15 02:59:20;;;;;;;48.72;23.30;;;;;;;3.87;54.90;94229.53;4991588;28;20286;-76
2022/02/15 03:01:46;;;;;;;39.72;21.05;;;;;;;3.72;54.84;94198.72;5006861;28;20034;-77
2022/02/15 03:04:13;;;;;;;46.75;22.83;;;;;;;3.70;55.32;94221.88;4992202;28;20048;-75
2022/02/15 03:06:38;;;;;;;50.40;23.42;;;;;;;3.57;55.68;94222.38;5002624;28;20057;-76
2022/02/15 03:09:05;;;;;;;48.03;21.75;;;;;;;3.69;55.41;94202.66;5001072;28;20033;-76
2022/02/15 03:11:31;;;;;;;42.53;21.25;;;;;;;3.81;55.62;94240.06;4993609;28;20046;-76
2022/02/15 03:13:56;;;;;;;45.20;22.05;;;;;;;3.64;55.90;94223.69;5000764;28;20045;-76
2022/02/15 03:16:24;;;;;;;44.25;22.75;;;;;;;3.68;55.79;94218.69;5003225;28;20148;-76
2022/02/15 03:18:50;;;;;;;44.72;20.02;;;;;;;3.49;55.81;94204.44;4997376;28;21160;-76
2022/02/15 03:21:16;;;;;;;46.17;21.98;;;;;;;3.51;56.18;94210.25;4999385;28;20033;-76
2022/02/15 03:23:42;;;;;;;45.80;23.13;;;;;;;3.14;56.52;94171.72;5000660;28;20029;-76
2022/02/15 03:26:07;;;;;;;41.70;20.50;;;;;;;3.63;56.39;94237.88;5000465;28;20029;-76
2022/02/15 03:28:33;;;;;;;43.70;21.40;;;;;;;3.09;57.89;94232.16;4999062;28;20099;-76
2022/02/15 03:30:58;;;;;;;52.17;20.30;;;;;;;3.11;58.39;94247.69;5008551;28;20106;-76
2022/02/15 03:33:24;;;;;;;49.13;24.38;;;;;;;3.14;58.06;94237.44;4987963;28;20438;-76
2022/02/15 03:35:49;;;;;;;47.00;20.80;;;;;;;3.32;57.34;94230.97;5003466;28;20022;-76
2022/02/15 03:38:14;;;;;;;49.17;22.50;;;;;;;3.43;56.74;94232.56;4995657;28;20037;-76
2022/02/15 03:43:23;;;;;;;48.88;23.75;;;;;;;3.49;57.19;94242.06;5000059;28;20086;-76
2022/02/15 03:45:49;;;;;;;44.67;20.40;;;;;;;2.98;58.24;94246.31;4990549;28;20041;-75
2022/02/15 03:48:15;;;;;;;46.55;22.40;;;;;;;3.30;57.38;94248.81;5002416;28;20500;-75
2022/02/15 03:50:41;;;;;;;48.30;22.23;;;;;;;3.07;57.60;94231.63;4989664;28;20046;-76
2022/02/15 03:53:06;;;;;;;50.78;21.88;;;;;;;3.45;56.96;94245.44;5002907;28;20717;-76
2022/02/15 03:55:32;;;;;;;47.67;21.48;;;;;;;3.71;55.50;94244.50;4997554;28;20297;-76
2022/02/15 03:57:57;;;;;;;49.75;22.67;;;;;;;3.74;55.75;94255.28;4991042;28;20029;-76
2022/02/15 04:00:23;;;;;;;49.65;21.77;;;;;;;3.61;55.92;94252.34;5003303;28;20348;-76
2022/02/15 04:02:50;;;;;;;57.25;23.90;;;;;;;3.58;55.83;94247.59;5005551;28;20537;-76
2022/02/15 04:05:15;;;;;;;41.63;20.00;;;;;;;3.04;56.82;94234.75;5001972;28;20038;-76
2022/02/15 04:07:41;;;;;;;48.88;24.23;;;;;;;3.21;56.76;94255.63;4997292;28;20942;-75
2022/02/15 04:10:07;;;;;;;48.63;22.67;;;;;;;3.09;57.58;94255.81;4997911;28;20041;-75
2022/02/15 04:12:33;;;;;;;45.20;22.63;;;;;;;3.31;56.65;94253.81;4996566;28;20033;-76
2022/02/15 04:14:58;;;;;;;53.38;21.83;;;;;;;3.02;56.75;94221.09;5000097;28;20040;-76
2022/02/15 04:17:23;;;;;;;45.85;22.77;;;;;;;3.36;56.38;94253.84;4999697;28;20033;-76
2022/02/15 04:19:49;;;;;;;46.67;22.60;;;;;;;3.30;56.06;94220.69;5004616;28;20487;-76
2022/02/15 04:22:14;;;;;;;46.90;23.05;;;;;;;3.68;55.23;94250.25;4991852;28;20034;-76
2022/02/15 04:24:40;;;;;;;44.15;22.10;;;;;;;3.51;55.35;94234.72;4999506;28;20318;-76
2022/02/15 04:27:05;;;;;;;44.38;20.08;;;;;;;3.64;54.91;94236.03;4993877;28;20605;-76
2022/02/15 04:29:31;;;;;;;43.70;21.63;;;;;;;3.56;54.68;94236.56;4997901;28;20045;-76
2022/02/15 04:31:56;;;;;;;58.65;22.52;;;;;;;3.35;54.42;94228.59;4994339;28;20053;-76
2022/02/15 04:34:21;;;;;;;49.47;22.83;;;;;;;2.76;55.45;94237.75;5001327;28;20471;-75
2022/02/15 04:36:47;;;;;;;47.90;22.48;;;;;;;2.40;56.82;94234.91;4996240;28;20038;-75
2022/02/15 04:39:12;;;;;;;40.83;19.90;;;;;;;2.73;55.84;94254.03;4993118;28;20689;-75
2022/02/15 04:41:39;;;;;;;51.20;21.92;;;;;;;2.03;58.37;94262.94;4998296;28;20073;-76
2022/02/15 04:44:05;;;;;;;51.50;23.08;;;;;;;2.34;57.56;94237.75;4997426;28;20120;-75
2022/02/15 04:46:30;;;;;;;48.45;22.17;;;;;;;2.58;56.88;94244.22;4993033;28;20046;-76
2022/02/15 04:48:56;;;;;;;44.15;24.27;;;;;;;2.83;55.76;94249.66;4996916;28;20038;-75
2022/02/15 04:51:22;;;;;;;39.55;19.52;;;;;;;1.81;57.68;94170.41;4994748;28;20057;-75
2022/02/15 04:53:47;;;;;;;43.10;20.00;;;;;;;2.52;56.75;94238.16;4994571;28;20253;-76
2022/02/15 04:56:12;;;;;;;46.20;19.65;;;;;;;2.91;55.53;94235.22;5004875;28;20641;-76
2022/02/15 04:58:39;;;;;;;37.53;18.80;;;;;;;2.74;56.19;94251.16;5000373;28;20034;-75
2022/02/15 05:01:05;;;;;;;43.78;20.05;;;;;;;2.78;56.40;94256.69;5015730;28;20467;-75
2022/02/15 05:03:31;;;;;;;32.53;16.27;;;;;;;2.63;55.92;94235.59;5000301;28;20032;-76
2022/02/15 05:05:56;;;;;;;35.58;17.30;;;;;;;2.72;55.86;94258.50;4993252;28;20041;-75
2022/02/15 05:08:22;;;;;;;32.92;16.30;;;;;;;2.52;55.90;94269.66;4997579;28;20385;-76
2022/02/15 05:10:47;;;;;;;46.40;22.38;;;;;;;2.76;55.48;94269.28;4991868;28;20495;-75
2022/02/15 05:13:13;;;;;;;44.00;20.98;;;;;;;2.11;55.67;94177.75;4998596;28;20766;-75
2022/02/15 05:15:39;;;;;;;47.72;20.63;;;;;;;2.78;55.36;94272.47;4999053;28;20033;-75
2022/02/15 05:18:05;;;;;;;33.58;17.23;;;;;;;2.53;55.86;94270.44;5001762;28;20128;-76
2022/02/15 05:20:32;;;;;;;39.13;19.25;;;;;;;2.58;55.78;94238.19;4995975;28;20044;-76
2022/02/15 05:22:58;;;;;;;40.70;19.25;;;;;;;2.73;55.61;94243.53;4985335;28;20345;-75
2022/02/15 05:25:24;;;;;;;35.83;17.73;;;;;;;2.77;55.40;94252.47;4998432;28;20033;-77
2022/02/15 05:27:51;;;;;;;34.50;18.17;;;;;;;2.63;55.68;94240.84;4998096;28;20357;-76
2022/02/15 05:30:17;;;;;;;35.05;16.75;;;;;;;2.78;55.28;94256.69;5010597;28;20067;-76
2022/02/15 05:32:42;;;;;;;40.03;19.17;;;;;;;2.12;56.44;94269.31;4999253;28;20053;-76
2022/02/15 05:35:09;;;;;;;48.30;24.98;;;;;;;2.15;57.68;94263.59;4997724;28;20527;-76
2022/02/15 05:37:35;;;;;;;39.10;19.15;;;;;;;2.49;56.82;94277.25;4995428;28;20049;-76
2022/02/15 05:40:01;;;;;;;34.15;17.23;;;;;;;2.82;56.36;94299.81;4991165;28;20046;-75
2022/02/15 05:42:26;;;;;;;40.10;24.13;;;;;;;2.97;55.83;94278.88;4991163;28;20059;-76
2022/02/15 05:44:52;;;;;;;46.05;22.90;;;;;;;3.05;55.45;94283.66;4988740;28;20029;-75
2022/02/15 05:47:18;;;;;;;42.22;20.35;;;;;;;3.03;55.22;94275.25;4994914;28;20091;-76
2022/02/15 05:52:27;;;;;;;53.10;27.08;;;;;;;3.11;55.91;94297.63;5000633;28;20083;-75
2022/02/15 05:54:52;;;;;;;54.90;21.33;;;;;;;3.05;56.13;94288.91;4991298;28;20046;-76
2022/02/15 05:57:18;;;;;;;59.80;25.20;;;;;;;3.04;56.48;94310.97;4999829;28;20358;-76
2022/02/15 05:59:43;;;;;;;56.13;24.38;;;;;;;2.90;57.32;94309.81;4995295;28;20026;-76
2022/02/15 06:02:09;;;;;;;42.95;21.85;;;;;;;3.03;57.11;94291.00;4994171;28;20042;-76
2022/02/15 06:04:34;;;;;;;45.63;21.55;;;;;;;3.14;56.69;94286.59;4993913;28;20424;-76
2022/02/15 06:07:00;;;;;;;54.78;23.50;;;;;;;3.12;56.81;94292.13;5002423;28;20053;-75
2022/02/15 06:09:25;;;;;;;53.40;23.20;;;;;;;3.22;56.99;94294.78;5003525;28;20061;-76
2022/02/15 06:11:50;;;;;;;63.13;30.05;;;;;;;3.11;56.57;94266.88;5002820;28;20041;-75
2022/02/15 06:14:16;;;;;;;54.78;24.33;;;;;;;2.96;57.10;94277.28;5000266;28;20556;-76
2022/02/15 06:16:42;;;;;;;52.95;23.38;;;;;;;3.17;57.43;94315.81;5001066;28;20039;-76
2022/02/15 06:19:07;;;;;;;54.97;23.77;;;;;;;3.42;56.87;94315.13;5003042;28;20206;-76
2022/02/15 06:21:33;;;;;;;54.22;24.17;;;;;;;3.30;56.65;94294.31;5004337;28;22133;-75
2022/02/15 06:23:58;;;;;;;55.63;22.75;;;;;;;3.36;57.08;94324.03;5001683;28;20692;-76
2022/02/15 06:26:24;;;;;;;48.58;22.10;;;;;;;3.42;57.23;94330.13;5005490;28;20085;-76
2022/02/15 06:28:49;;;;;;;55.17;23.98;;;;;;;3.15;57.68;94302.09;5004218;28;20664;-76
2022/02/15 06:31:15;;;;;;;50.53;22.02;;;;;;;3.24;57.77;94326.06;4997625;28;20112;-76
2022/02/15 06:33:40;;;;;;;49.47;24.25;;;;;;;3.07;57.93;94291.28;4999360;28;20496;-75
2022/02/15 06:36:06;;;;;;;46.38;23.25;;;;;;;2.90;58.30;94294.84;4995466;28;20022;-76
2022/02/15 06:38:32;;;;;;;60.10;24.90;;;;;;;2.99;58.46;94321.44;4995516;28;20136;-76
2022/02/15 06:40:58;;;;;;;58.65;25.02;;;;;;;3.09;58.98;94337.28;4999014;28;20500;-75
2022/02/15 06:43:23;;;;;;;55.72;26.02;;;;;;;3.07;59.53;94333.34;4999313;28;20037;-76
2022/02/15 06:45:48;;;;;;;58.08;23.75;;;;;;;3.19;58.61;94321.56;4994738;28;20048;-75
2022/02/15 06:48:14;;;;;;;58.13;24.48;;;;;;;3.16;58.62;94324.72;5003718;28;20033;-75
2022/02/15 06:50:39;;;;;;;56.00;23.60;;;;;;;3.17;58.40;94323.69;5002828;28;20037;-76
2022/02/15 06:53:05;;;;;;;56.40;26.88;;;;;;;2.95;58.69;94323.00;4999745;28;20171;-76
2022/02/15 06:55:30;;;;;;;51.25;23.20;;;;;;;2.37;60.66;94335.16;5001944;28;20471;-76
2022/02/15 06:57:56;;;;;;;54.08;25.40;;;;;;;2.33;62.79;94339.31;4995099;28;20495;-75
2022/02/15 07:00:21;;;;;;;54.35;25.05;;;;;;;2.68;61.23;94319.66;5002386;28;20037;-77
2022/02/15 07:02:47;;;;;;;53.58;25.25;;;;;;;2.77;59.99;94292.69;4999735;28;20149;-76
2022/02/15 07:05:12;;;;;;;73.30;28.60;;;;;;;2.83;59.90;94322.41;5000980;28;20088;-76
2022/02/15 07:07:38;;;;;;;61.25;26.95;;;;;;;3.14;59.49;94339.16;4995413;28;20432;-75
2022/02/15 07:10:05;;;;;;;65.82;29.63;;;;;;;3.06;59.28;94337.00;4998250;28;20335;-76
2022/02/15 07:12:31;;;;;;;61.53;29.70;;;;;;;2.89;59.33;94342.44;4997411;28;21937;-76
2022/02/15 07:14:56;;;;;;;70.13;29.67;;;;;;;2.74;60.24;94318.66;5003306;28;20026;-75
2022/02/15 07:17:24;;;;;;;67.00;27.80;;;;;;;2.81;60.36;94332.34;5008249;28;20412;-76
2022/02/15 07:19:49;;;;;;;56.80;25.88;;;;;;;2.93;61.65;94360.06;5009119;28;20105;-75
2022/02/15 07:22:15;;;;;;;44.75;20.80;;;;;;;3.11;60.45;94323.91;4996193;28;20516;-76
2022/02/15 07:24:41;;;;;;;46.13;20.98;;;;;;;3.02;61.19;94351.69;5000183;28;20038;-76
2022/02/15 07:27:06;;;;;;;43.40;21.35;;;;;;;3.40;60.77;94335.63;5001519;28;20443;-76
2022/02/15 07:29:32;;;;;;;43.05;21.45;;;;;;;3.30;60.68;94310.06;4999722;28;20040;-76
2022/02/15 07:31:57;;;;;;;43.67;21.10;;;;;;;3.24;62.06;94340.00;4993671;28;20519;-75
2022/02/15 07:34:22;;;;;;;38.60;19.15;;;;;;;2.71;63.07;94306.03;5006858;28;20592;-76
2022/02/15 07:36:50;;;;;;;43.60;21.10;;;;;;;3.17;62.39;94338.66;4997185;28;20041;-76
2022/02/15 07:39:16;;;;;;;40.47;19.85;;;;;;;3.19;61.26;94316.31;5008141;28;20063;-76
2022/02/15 07:41:41;;;;;;;40.67;20.15;;;;;;;2.18;64.65;94330.50;5002414;28;20159;-75
2022/02/15 07:44:06;;;;;;;45.63;20.67;;;;;;;2.29;66.46;94335.63;4995594;28;20401;-76
2022/02/15 07:46:32;;;;;;;47.60;22.20;;;;;;;1.67;67.93;94295.84;4996451;28;20087;-76
2022/02/15 07:48:57;;;;;;;54.17;24.05;;;;;;;1.35;69.40;94311.47;5016616;28;20111;-76
2022/02/15 07:51:23;;;;;;;57.65;23.30;;;;;;;2.02;68.71;94340.06;5003917;28;20040;-75
2022/02/15 07:53:48;;;;;;;51.50;24.73;;;;;;;1.28;68.91;94262.91;5004336;28;20073;-75
2022/02/15 07:56:14;;;;;;;49.75;22.23;;;;;;;2.08;69.36;94339.06;5003882;28;20558;-76
2022/02/15 07:58:39;;;;;;;43.67;25.30;;;;;;;1.68;68.88;94321.84;4993550;28;20047;-76
2022/02/15 08:01:05;;;;;;;37.72;21.00;;;;;;;1.83;69.35;94341.38;5002372;28;20238;-76
2022/02/15 08:03:31;;;;;;;51.45;23.33;;;;;;;2.45;68.04;94337.31;5004028;28;20036;-76
2022/02/15 08:05:56;;;;;;;50.00;26.13;;;;;;;2.61;66.00;94326.94;4999533;28;20045;-76
2022/02/15 08:08:22;;;;;;;53.55;24.73;;;;;;;2.07;67.42;94334.84;5019040;28;20529;-76
2022/02/15 08:10:48;;;;;;;63.17;27.45;;;;;;;2.63;66.58;94353.75;4998470;28;20049;-76
2022/02/15 08:13:18;;;;;;;55.83;27.40;;;;;;;2.48;64.96;94331.59;4998377;28;20045;-76
2022/02/15 08:15:45;;;;;;;59.55;27.50;;;;;;;2.85;64.47;94357.09;5000286;28;20048;-76
2022/02/15 08:18:11;;;;;;;49.55;26.02;;;;;;;2.87;63.32;94344.50;5009015;28;20061;-75
2022/02/15 08:20:36;;;;;;;58.38;28.25;;;;;;;3.14;62.89;94355.72;5004925;28;20164;-76
2022/02/15 08:23:02;;;;;;;46.58;25.23;;;;;;;2.50;63.66;94357.56;4990240;28;20049;-75
2022/02/15 08:25:28;;;;;;;42.90;23.17;;;;;;;2.41;65.09;94351.19;5003522;28;20120;-76
2022/02/15 08:27:54;;;;;;;48.65;21.75;;;;;;;2.42;65.03;94344.91;5002556;28;20048;-76
2022/02/15 08:30:20;;;;;;;50.25;21.85;;;;;;;2.04;66.08;94344.03;4998231;28;20033;-76
2022/02/15 08:32:46;;;;;;;39.90;20.88;;;;;;;1.85;67.19;94315.72;4996150;28;20042;-76
2022/02/15 08:35:14;;;;;;;56.50;27.60;;;;;;;1.73;68.42;94341.28;4988429;28;20038;-76
2022/02/15 08:37:39;;;;;;;47.67;24.25;;;;;;;1.58;69.15;94326.94;5014838;28;20038;-76
2022/02/15 08:40:07;;;;;;;48.28;23.23;;;;;;;1.88;69.29;94331.78;4999192;28;20069;-76
2022/02/15 08:42:33;;;;;;;42.80;22.15;;;;;;;1.87;68.83;94334.66;4998527;28;20037;-75
2022/02/15 08:44:59;;;;;;;40.35;19.33;;;;;;;2.17;68.04;94339.41;4996767;28;20287;-76
2022/02/15 08:47:25;;;;;;;45.08;21.98;;;;;;;2.52;66.08;94343.19;4989758;28;20053;-76
2022/02/15 08:49:52;;;;;;;39.17;22.00;;;;;;;2.04;66.44;94345.88;4984744;28;20034;-76
2022/02/15 08:52:23;;;;;;;50.72;23.55;;;;;;;1.83;68.02;94336.16;4999305;28;20050;-76
2022/02/15 08:54:48;;;;;;;40.22;21.25;;;;;;;1.95;68.94;94331.59;4988847;28;20161;-77
2022/02/15 08:57:14;;;;;;;46.88;21.77;;;;;;;2.34;67.59;94293.66;4996835;28;20037;-76
2022/02/15 08:59:39;;;;;;;53.65;24.17;;;;;;;2.34;67.35;94340.13;4994764;28;20033;-76
2022/02/15 09:02:05;;;;;;;46.80;22.05;;;;;;;2.37;67.79;94339.63;4990774;28;20532;-76
2022/02/15 09:04:30;;;;;;;48.30;20.77;;;;;;;2.53;67.07;94336.88;4988606;28;20151;-76
2022/02/15 09:06:56;;;;;;;45.10;22.17;;;;;;;2.53;65.69;94323.75;4997511;28;20842;-76
2022/02/15 09:09:22;;;;;;;41.38;20.08;;;;;;;2.68;65.63;94319.66;4996366;28;20029;-76
2022/02/15 09:11:47;;;;;;;53.60;23.70;;;;;;;2.71;65.10;94283.19;4995835;28;20038;-76
2022/02/15 09:14:13;;;;;;;38.92;20.77;;;;;;;2.83;64.34;94306.66;4990437;28;20033;-76
2022/02/15 09:16:38;;;;;;;37.58;19.80;;;;;;;3.56;63.20;94331.25;4995247;28;20069;-76
2022/02/15 09:19:05;;;;;;;34.13;18.13;;;;;;;3.45;62.62;94316.44;4996707;28;20097;-76
2022/02/15 09:21:32;;;;;;;36.45;18.08;;;;;;;3.40;60.81;94296.97;4983540;28;20017;-76
2022/02/15 09:23:58;;;;;;;34.95;17.92;;;;;;;2.91;60.82;94293.81;4997263;28;20376;-76
2022/02/15 09:26:23;;;;;;;40.50;18.17;;;;;;;2.89;62.17;94326.66;4993632;28;20037;-76
2022/02/15 09:28:48;;;;;;;32.17;19.38;;;;;;;3.27;62.26;94315.84;4993582;28;20048;-76
2022/02/15 09:31:16;;;;;;;37.75;19.20;;;;;;;3.64;61.21;94302.59;4988631;28;20416;-76
2022/02/15 09:33:41;;;;;;;44.33;19.33;;;;;;;3.68;60.04;94318.66;5003228;28;20026;-76
2022/02/15 09:36:07;;;;;;;36.10;18.13;;;;;;;3.22;61.21;94279.03;4989974;28;20072;-76
2022/02/15 09:38:32;;;;;;;41.78;18.70;;;;;;;4.00;60.21;94300.88;4994767;28;20065;-76
2022/02/15 09:41:02;;;;;;;32.22;16.13;;;;;;;4.55;58.18;94305.44;4994522;28;20366;-76
2022/02/15 09:43:28;;;;;;;31.30;16.80;;;;;;;4.32;56.66;94290.16;4998231;28;20821;-76
2022/02/15 09:45:53;;;;;;;33.45;17.52;;;;;;;3.44;59.13;94264.91;4994936;28;20029;-76
2022/02/15 09:48:24;;;;;;;34.95;18.63;;;;;;;4.27;58.79;94293.53;4995587;28;20395;-76
2022/02/15 09:50:51;;;;;;;32.55;16.75;;;;;;;4.50;57.48;94289.63;4998260;28;20564;-77
2022/02/15 09:53:16;;;;;;;31.50;17.17;;;;;;;4.26;57.64;94288.53;4987669;28;20041;-76
2022/02/15 09:55:42;;;;;;;34.92;18.17;;;;;;;4.02;58.34;94282.16;5001269;28;20037;-75
2022/02/15 09:58:07;;;;;;;34.42;16.13;;;;;;;4.26;57.55;94265.63;4982351;28;20335;-76
2022/02/15 10:00:34;;;;;;;33.97;18.02;;;;;;;4.01;57.53;94260.34;4995569;28;20917;-76
2022/02/15 10:03:01;;;;;;;30.90;17.10;;;;;;;4.48;57.39;94264.63;5001031;28;20018;-76
2022/02/15 10:05:32;;;;;;;30.40;16.20;;;;;;;4.21;57.92;94257.72;4998508;28;20050;-77
2022/02/15 10:07:58;;;;;;;34.38;16.92;;;;;;;4.26;57.50;94260.34;4984558;28;20475;-76
2022/02/15 10:10:35;;;;;;;26.60;15.98;;;;;;;4.62;56.48;94260.41;4990058;28;20053;-76
2022/02/15 10:13:06;;;;;;;29.63;16.00;;;;;;;4.85;55.96;94245.88;4996239;28;20037;-76
2022/02/15 10:15:36;;;;;;;32.95;16.40;;;;;;;4.99;55.44;94250.31;4995644;28;20044;-76
2022/02/15 10:18:07;;;;;;;31.05;15.27;;;;;;;5.12;54.76;94244.50;4995131;28;20049;-76
2022/02/15 10:20:33;;;;;;;37.15;15.35;;;;;;;4.61;55.44;94248.28;4999578;28;20057;-76
2022/02/15 10:23:29;;;;;;;29.38;14.95;;;;;;;4.59;55.64;94250.41;4991793;28;20095;-76
2022/02/15 10:25:56;;;;;;;;;;;;;;;4.68;55.59;94243.53;4991740;28;20088;-76
2022/02/15 10:28:28;;;;;;;32.10;15.20;;;;;;;4.37;56.01;94248.03;4999954;28;19925;-76
2022/02/15 10:30:56;;;;;;;26.55;15.82;;;;;;;4.99;55.10;94229.22;5014051;28;20108;-76
2022/02/15 10:33:35;;;;;;;33.03;16.85;;;;;;;5.27;54.38;94219.16;4994680;28;20042;-77
2022/02/15 10:36:10;;;;;;;31.13;15.57;;;;;;;5.54;54.23;94230.09;4970833;28;20049;-76
2022/02/15 10:38:39;;;;;;;32.47;17.13;;;;;;;5.36;54.03;94233.34;4969560;28;20427;-76
2022/02/15 10:41:10;;;;;;;28.48;16.05;;;;;;;5.13;53.91;94227.63;4974347;28;20048;-76
2022/02/15 10:43:47;;;;;;;28.55;16.48;;;;;;;5.00;54.02;94199.19;4970492;28;20532;-77
2022/02/15 10:46:33;;;;;;;31.38;16.10;;;;;;;5.40;53.18;94213.28;4969412;28;20038;-76
2022/02/15 10:48:59;;;;;;;31.52;16.27;;;;;;;5.41;53.71;94194.56;4994453;28;20378;-77
2022/02/15 10:51:27;;;;;;;32.58;16.25;;;;;;;5.06;53.82;94192.84;4976836;28;20022;-77
2022/02/15 10:53:52;;;;;;;34.13;16.45;;;;;;;5.18;53.86;94202.31;4980825;28;20030;-77
2022/02/15 10:56:18;;;;;;;33.40;16.33;;;;;;;5.34;53.44;94199.31;4968568;28;20518;-78
2022/02/15 10:58:45;;;;;;;36.67;17.92;;;;;;;5.12;54.04;94190.97;4979110;28;20045;-78
2022/02/15 11:01:12;;;;;;;34.58;17.25;;;;;;;5.53;53.55;94192.38;4969961;28;20073;-76
2022/02/15 11:03:40;;;;;;;30.80;17.00;;;;;;;5.83;52.75;94177.41;4982933;28;20350;-76
2022/02/15 11:06:07;;;;;;;27.98;15.68;;;;;;;5.76;51.13;94161.91;4975041;28;20602;-77
2022/02/15 11:08:36;;;;;;;38.10;17.13;;;;;;;5.63;52.08;94191.53;4970185;28;20044;-76
2022/02/15 11:11:04;;;;;;;30.58;16.55;;;;;;;5.50;52.55;94178.94;4966700;28;20057;-76
2022/02/15 11:13:32;;;;;;;37.63;16.58;;;;;;;5.31;52.96;94176.13;4981328;28;20038;-76
2022/02/15 11:16:00;;;;;;;32.55;16.65;;;;;;;5.35;53.29;94177.16;4983081;28;20073;-77
2022/02/15 11:18:34;;;;;;;32.30;16.10;;;;;;;5.50;53.09;94168.38;4986028;28;20022;-76
2022/02/15 11:21:02;;;;;;;30.67;16.15;;;;;;;5.60;52.04;94172.81;4986835;28;20030;-76
2022/02/15 11:23:29;;;;;;;31.92;15.18;;;;;;;5.97;51.47;94165.16;4988932;28;20037;-76
2022/02/15 11:26:10;;;;;;;30.60;15.63;;;;;;;6.02;51.25;94139.53;4976835;28;20046;-77
2022/02/15 11:28:53;;;;;;;31.00;17.30;;;;;;;6.21;50.17;94152.09;4972864;28;20052;-76
2022/02/15 11:31:25;;;;;;;38.10;17.38;;;;;;;6.20;50.23;94142.59;4981394;28;20404;-76